sensor_id;sensor_type;location;lat;lon;timestamp;P1;durP1;ratioP1;P2;durP2;ratioP2
17345;SDS011;8790;53.590;10.002;2023-03-01T00:01:37;12.63;;;8.40;;
17345;SDS011;8790;53.590;10.002;2023-03-01T00:04:09;12.03;;;8.20;;
17345;SDS011;8790;53.590;10.002;2023-03-01T00:06:43;14.67;;;7.63;;
17345;SDS011;8790;53.590;10.002;2023-03-01T00:09:16;12.07;;;8.13;;
17345;SDS011;8790;53.590;10.002;2023-03-01T00:11:48;11.47;;;8.20;;
17345;SDS011;8790;53.590;10.002;2023-03-01T00:14:20;12.70;;;8.60;;
17345;SDS011;8790;53.590;10.002;2023-03-01T00:16:52;14.37;;;9.03;;
17345;SDS011;8790;53.590;10.002;2023-03-01T00:19:23;14.67;;;8.50;;
17345;SDS011;8790;53.590;10.002;2023-03-01T00:21:57;12.17;;;7.60;;
17345;SDS011;8790;53.590;10.002;2023-03-01T00:24:28;15.67;;;7.90;;
17345;SDS011;8790;53.590;10.002;2023-03-01T00:27:01;12.93;;;7.87;;
17345;SDS011;8790;53.590;10.002;2023-03-01T00:29:33;13.87;;;7.63;;
17345;SDS011;8790;53.590;10.002;2023-03-01T00:32:04;12.33;;;8.20;;
17345;SDS011;8790;53.590;10.002;2023-03-01T00:34:36;12.07;;;7.87;;
17345;SDS011;8790;53.590;10.002;2023-03-01T00:37:09;11.53;;;7.73;;
17345;SDS011;8790;53.590;10.002;2023-03-01T00:39:41;13.47;;;8.43;;
17345;SDS011;8790;53.590;10.002;2023-03-01T00:42:13;14.33;;;8.00;;
17345;SDS011;8790;53.590;10.002;2023-03-01T00:44:45;11.00;;;7.00;;
17345;SDS011;8790;53.590;10.002;2023-03-01T00:47:17;12.83;;;8.30;;
17345;SDS011;8790;53.590;10.002;2023-03-01T00:49:48;13.17;;;7.70;;
17345;SDS011;8790;53.590;10.002;2023-03-01T00:52:22;10.60;;;7.43;;
17345;SDS011;8790;53.590;10.002;2023-03-01T00:54:54;10.67;;;7.27;;
17345;SDS011;8790;53.590;10.002;2023-03-01T00:57:25;12.73;;;6.87;;
17345;SDS011;8790;53.590;10.002;2023-03-01T00:59:57;11.03;;;7.40;;
17345;SDS011;8790;53.590;10.002;2023-03-01T01:02:29;11.73;;;7.53;;
17345;SDS011;8790;53.590;10.002;2023-03-01T01:05:03;11.03;;;7.67;;
17345;SDS011;8790;53.590;10.002;2023-03-01T01:07:38;10.27;;;6.60;;
17345;SDS011;8790;53.590;10.002;2023-03-01T01:10:10;11.00;;;7.17;;
17345;SDS011;8790;53.590;10.002;2023-03-01T01:12:47;11.90;;;6.87;;
17345;SDS011;8790;53.590;10.002;2023-03-01T01:15:19;9.57;;;6.50;;
17345;SDS011;8790;53.590;10.002;2023-03-01T01:17:50;12.13;;;7.20;;
17345;SDS011;8790;53.590;10.002;2023-03-01T01:20:22;9.57;;;6.77;;
17345;SDS011;8790;53.590;10.002;2023-03-01T01:22:55;10.53;;;7.00;;
17345;SDS011;8790;53.590;10.002;2023-03-01T01:25:27;10.13;;;7.10;;
17345;SDS011;8790;53.590;10.002;2023-03-01T01:27:59;10.30;;;6.43;;
17345;SDS011;8790;53.590;10.002;2023-03-01T01:30:31;9.67;;;7.03;;
17345;SDS011;8790;53.590;10.002;2023-03-01T01:33:02;8.27;;;6.40;;
17345;SDS011;8790;53.590;10.002;2023-03-01T01:35:34;9.50;;;6.43;;
17345;SDS011;8790;53.590;10.002;2023-03-01T01:38:07;9.47;;;6.27;;
17345;SDS011;8790;53.590;10.002;2023-03-01T01:40:42;10.10;;;6.73;;
17345;SDS011;8790;53.590;10.002;2023-03-01T01:43:16;13.30;;;7.20;;
17345;SDS011;8790;53.590;10.002;2023-03-01T01:45:51;10.37;;;6.60;;
17345;SDS011;8790;53.590;10.002;2023-03-01T01:48:27;10.40;;;6.60;;
17345;SDS011;8790;53.590;10.002;2023-03-01T01:51:11;7.50;;;5.83;;
17345;SDS011;8790;53.590;10.002;2023-03-01T01:53:50;10.60;;;6.60;;
17345;SDS011;8790;53.590;10.002;2023-03-01T01:56:25;8.13;;;6.20;;
17345;SDS011;8790;53.590;10.002;2023-03-01T01:58:59;9.80;;;6.33;;
17345;SDS011;8790;53.590;10.002;2023-03-01T02:01:33;10.40;;;6.13;;
17345;SDS011;8790;53.590;10.002;2023-03-01T02:04:05;10.23;;;6.47;;
17345;SDS011;8790;53.590;10.002;2023-03-01T02:06:38;9.77;;;6.07;;
17345;SDS011;8790;53.590;10.002;2023-03-01T02:09:14;11.67;;;6.50;;
17345;SDS011;8790;53.590;10.002;2023-03-01T02:11:47;9.80;;;6.23;;
17345;SDS011;8790;53.590;10.002;2023-03-01T02:14:20;9.53;;;6.20;;
17345;SDS011;8790;53.590;10.002;2023-03-01T02:16:51;10.97;;;6.20;;
17345;SDS011;8790;53.590;10.002;2023-03-01T02:19:27;9.30;;;6.87;;
17345;SDS011;8790;53.590;10.002;2023-03-01T02:22:11;11.27;;;6.30;;
17345;SDS011;8790;53.590;10.002;2023-03-01T02:24:55;10.50;;;6.03;;
17345;SDS011;8790;53.590;10.002;2023-03-01T02:27:36;9.33;;;6.37;;
17345;SDS011;8790;53.590;10.002;2023-03-01T02:30:15;11.13;;;6.70;;
17345;SDS011;8790;53.590;10.002;2023-03-01T02:32:47;8.03;;;5.83;;
17345;SDS011;8790;53.590;10.002;2023-03-01T02:35:20;9.93;;;5.87;;
17345;SDS011;8790;53.590;10.002;2023-03-01T02:37:52;9.63;;;6.47;;
17345;SDS011;8790;53.590;10.002;2023-03-01T02:40:27;8.50;;;6.47;;
17345;SDS011;8790;53.590;10.002;2023-03-01T02:43:00;10.30;;;6.63;;
17345;SDS011;8790;53.590;10.002;2023-03-01T02:45:36;8.30;;;6.53;;
17345;SDS011;8790;53.590;10.002;2023-03-01T02:48:08;11.33;;;6.70;;
17345;SDS011;8790;53.590;10.002;2023-03-01T02:50:45;9.03;;;6.23;;
17345;SDS011;8790;53.590;10.002;2023-03-01T02:53:27;7.60;;;6.00;;
17345;SDS011;8790;53.590;10.002;2023-03-01T02:56:07;9.80;;;6.57;;
17345;SDS011;8790;53.590;10.002;2023-03-01T02:58:43;9.70;;;6.73;;
17345;SDS011;8790;53.590;10.002;2023-03-01T03:01:22;10.27;;;7.07;;
17345;SDS011;8790;53.590;10.002;2023-03-01T03:04:06;9.47;;;7.00;;
17345;SDS011;8790;53.590;10.002;2023-03-01T03:06:41;10.17;;;7.27;;
17345;SDS011;8790;53.590;10.002;2023-03-01T03:09:14;9.43;;;7.20;;
17345;SDS011;8790;53.590;10.002;2023-03-01T03:11:47;8.80;;;6.30;;
17345;SDS011;8790;53.590;10.002;2023-03-01T03:14:18;10.57;;;6.23;;
17345;SDS011;8790;53.590;10.002;2023-03-01T03:16:53;9.80;;;7.00;;
17345;SDS011;8790;53.590;10.002;2023-03-01T03:19:25;11.57;;;7.90;;
17345;SDS011;8790;53.590;10.002;2023-03-01T03:21:57;12.97;;;7.80;;
17345;SDS011;8790;53.590;10.002;2023-03-01T03:24:29;13.00;;;8.03;;
17345;SDS011;8790;53.590;10.002;2023-03-01T03:27:08;10.80;;;7.37;;
17345;SDS011;8790;53.590;10.002;2023-03-01T03:29:40;10.83;;;8.10;;
17345;SDS011;8790;53.590;10.002;2023-03-01T03:32:13;11.77;;;7.73;;
17345;SDS011;8790;53.590;10.002;2023-03-01T03:34:44;11.93;;;7.63;;
17345;SDS011;8790;53.590;10.002;2023-03-01T03:37:16;10.87;;;7.50;;
17345;SDS011;8790;53.590;10.002;2023-03-01T03:40:02;11.70;;;7.60;;
17345;SDS011;8790;53.590;10.002;2023-03-01T03:42:45;12.20;;;7.53;;
17345;SDS011;8790;53.590;10.002;2023-03-01T03:45:17;11.40;;;7.20;;
17345;SDS011;8790;53.590;10.002;2023-03-01T03:47:50;11.20;;;7.50;;
17345;SDS011;8790;53.590;10.002;2023-03-01T03:50:22;11.23;;;7.40;;
17345;SDS011;8790;53.590;10.002;2023-03-01T03:52:53;11.40;;;6.97;;
17345;SDS011;8790;53.590;10.002;2023-03-01T03:55:25;8.43;;;6.50;;
17345;SDS011;8790;53.590;10.002;2023-03-01T03:58:00;10.73;;;7.33;;
17345;SDS011;8790;53.590;10.002;2023-03-01T04:00:37;8.87;;;6.47;;
17345;SDS011;8790;53.590;10.002;2023-03-01T04:03:12;10.63;;;7.03;;
17345;SDS011;8790;53.590;10.002;2023-03-01T04:05:46;8.80;;;6.60;;
17345;SDS011;8790;53.590;10.002;2023-03-01T04:08:21;7.57;;;5.77;;
17345;SDS011;8790;53.590;10.002;2023-03-01T04:10:56;7.47;;;5.40;;
17345;SDS011;8790;53.590;10.002;2023-03-01T04:13:30;8.83;;;6.07;;
17345;SDS011;8790;53.590;10.002;2023-03-01T04:16:02;8.13;;;5.40;;
17345;SDS011;8790;53.590;10.002;2023-03-01T04:18:35;8.17;;;5.27;;
17345;SDS011;8790;53.590;10.002;2023-03-01T04:21:07;7.77;;;5.50;;
17345;SDS011;8790;53.590;10.002;2023-03-01T04:23:40;6.33;;;5.33;;
17345;SDS011;8790;53.590;10.002;2023-03-01T04:26:12;6.97;;;5.20;;
17345;SDS011;8790;53.590;10.002;2023-03-01T04:28:43;7.10;;;4.80;;
17345;SDS011;8790;53.590;10.002;2023-03-01T04:31:18;5.63;;;4.67;;
17345;SDS011;8790;53.590;10.002;2023-03-01T04:33:53;6.10;;;4.53;;
17345;SDS011;8790;53.590;10.002;2023-03-01T04:36:27;9.33;;;4.93;;
17345;SDS011;8790;53.590;10.002;2023-03-01T04:38:59;6.50;;;4.63;;
17345;SDS011;8790;53.590;10.002;2023-03-01T04:41:42;6.60;;;4.70;;
17345;SDS011;8790;53.590;10.002;2023-03-01T04:44:14;5.70;;;4.50;;
17345;SDS011;8790;53.590;10.002;2023-03-01T04:46:48;7.20;;;4.47;;
17345;SDS011;8790;53.590;10.002;2023-03-01T04:49:21;5.37;;;4.00;;
17345;SDS011;8790;53.590;10.002;2023-03-01T04:51:53;6.00;;;4.13;;
17345;SDS011;8790;53.590;10.002;2023-03-01T04:54:25;6.80;;;4.33;;
17345;SDS011;8790;53.590;10.002;2023-03-01T04:56:56;6.53;;;4.60;;
17345;SDS011;8790;53.590;10.002;2023-03-01T04:59:28;6.73;;;4.30;;
17345;SDS011;8790;53.590;10.002;2023-03-01T05:02:00;6.53;;;4.43;;
17345;SDS011;8790;53.590;10.002;2023-03-01T05:04:33;6.53;;;4.33;;
17345;SDS011;8790;53.590;10.002;2023-03-01T05:07:05;6.07;;;4.43;;
17345;SDS011;8790;53.590;10.002;2023-03-01T05:09:37;5.63;;;4.03;;
17345;SDS011;8790;53.590;10.002;2023-03-01T05:12:09;5.83;;;4.57;;
17345;SDS011;8790;53.590;10.002;2023-03-01T05:14:41;5.87;;;4.40;;
17345;SDS011;8790;53.590;10.002;2023-03-01T05:17:13;7.30;;;4.73;;
17345;SDS011;8790;53.590;10.002;2023-03-01T05:19:46;7.80;;;4.90;;
17345;SDS011;8790;53.590;10.002;2023-03-01T05:22:17;7.43;;;5.00;;
17345;SDS011;8790;53.590;10.002;2023-03-01T05:24:49;8.43;;;5.20;;
17345;SDS011;8790;53.590;10.002;2023-03-01T05:27:21;8.07;;;5.00;;
17345;SDS011;8790;53.590;10.002;2023-03-01T05:29:52;10.20;;;4.70;;
17345;SDS011;8790;53.590;10.002;2023-03-01T05:32:24;7.60;;;4.53;;
17345;SDS011;8790;53.590;10.002;2023-03-01T05:34:57;9.33;;;5.30;;
17345;SDS011;8790;53.590;10.002;2023-03-01T05:37:29;7.70;;;5.50;;
17345;SDS011;8790;53.590;10.002;2023-03-01T05:40:01;8.20;;;5.30;;
17345;SDS011;8790;53.590;10.002;2023-03-01T05:42:35;7.70;;;5.30;;
17345;SDS011;8790;53.590;10.002;2023-03-01T05:45:07;8.30;;;5.77;;
17345;SDS011;8790;53.590;10.002;2023-03-01T05:47:40;8.80;;;5.37;;
17345;SDS011;8790;53.590;10.002;2023-03-01T05:50:15;8.00;;;5.77;;
17345;SDS011;8790;53.590;10.002;2023-03-01T05:52:50;9.40;;;5.93;;
17345;SDS011;8790;53.590;10.002;2023-03-01T05:55:23;9.97;;;6.30;;
17345;SDS011;8790;53.590;10.002;2023-03-01T05:57:57;8.97;;;6.30;;
17345;SDS011;8790;53.590;10.002;2023-03-01T06:00:30;11.20;;;6.37;;
17345;SDS011;8790;53.590;10.002;2023-03-01T06:03:02;7.90;;;5.57;;
17345;SDS011;8790;53.590;10.002;2023-03-01T06:05:35;8.17;;;6.00;;
17345;SDS011;8790;53.590;10.002;2023-03-01T06:08:08;10.07;;;5.83;;
17345;SDS011;8790;53.590;10.002;2023-03-01T06:10:41;9.83;;;5.77;;
17345;SDS011;8790;53.590;10.002;2023-03-01T06:13:12;12.10;;;6.10;;
17345;SDS011;8790;53.590;10.002;2023-03-01T06:15:44;8.90;;;5.80;;
17345;SDS011;8790;53.590;10.002;2023-03-01T06:18:16;8.80;;;5.80;;
17345;SDS011;8790;53.590;10.002;2023-03-01T06:20:53;9.10;;;5.93;;
17345;SDS011;8790;53.590;10.002;2023-03-01T06:23:25;10.37;;;5.50;;
17345;SDS011;8790;53.590;10.002;2023-03-01T06:25:57;9.83;;;6.20;;
17345;SDS011;8790;53.590;10.002;2023-03-01T06:28:29;12.17;;;6.03;;
17345;SDS011;8790;53.590;10.002;2023-03-01T06:31:00;10.20;;;6.40;;
17345;SDS011;8790;53.590;10.002;2023-03-01T06:33:32;10.47;;;6.03;;
17345;SDS011;8790;53.590;10.002;2023-03-01T06:36:06;10.57;;;6.07;;
17345;SDS011;8790;53.590;10.002;2023-03-01T06:38:39;9.57;;;5.87;;
17345;SDS011;8790;53.590;10.002;2023-03-01T06:41:11;9.17;;;5.67;;
17345;SDS011;8790;53.590;10.002;2023-03-01T06:43:43;12.93;;;6.63;;
17345;SDS011;8790;53.590;10.002;2023-03-01T06:46:15;8.80;;;4.83;;
17345;SDS011;8790;53.590;10.002;2023-03-01T06:48:46;7.77;;;4.60;;
17345;SDS011;8790;53.590;10.002;2023-03-01T06:51:19;8.03;;;4.43;;
17345;SDS011;8790;53.590;10.002;2023-03-01T06:53:51;5.53;;;4.33;;
17345;SDS011;8790;53.590;10.002;2023-03-01T06:56:23;6.93;;;4.50;;
17345;SDS011;8790;53.590;10.002;2023-03-01T06:58:55;15.10;;;8.27;;
17345;SDS011;8790;53.590;10.002;2023-03-01T07:01:26;6.90;;;5.03;;
17345;SDS011;8790;53.590;10.002;2023-03-01T07:03:58;8.07;;;4.80;;
17345;SDS011;8790;53.590;10.002;2023-03-01T07:06:31;6.70;;;4.40;;
17345;SDS011;8790;53.590;10.002;2023-03-01T07:09:03;8.27;;;4.80;;
17345;SDS011;8790;53.590;10.002;2023-03-01T07:11:34;6.37;;;4.20;;
17345;SDS011;8790;53.590;10.002;2023-03-01T07:14:06;9.77;;;5.07;;
17345;SDS011;8790;53.590;10.002;2023-03-01T07:16:38;11.27;;;5.57;;
17345;SDS011;8790;53.590;10.002;2023-03-01T07:19:10;7.87;;;5.10;;
17345;SDS011;8790;53.590;10.002;2023-03-01T07:21:43;8.50;;;5.17;;
17345;SDS011;8790;53.590;10.002;2023-03-01T07:24:14;8.17;;;5.23;;
17345;SDS011;8790;53.590;10.002;2023-03-01T07:26:48;7.80;;;5.60;;
17345;SDS011;8790;53.590;10.002;2023-03-01T07:29:20;9.67;;;6.00;;
17345;SDS011;8790;53.590;10.002;2023-03-01T07:31:51;7.90;;;5.83;;
17345;SDS011;8790;53.590;10.002;2023-03-01T07:34:23;8.83;;;6.13;;
17345;SDS011;8790;53.590;10.002;2023-03-01T07:36:56;8.50;;;6.43;;
17345;SDS011;8790;53.590;10.002;2023-03-01T07:39:28;9.87;;;6.27;;
17345;SDS011;8790;53.590;10.002;2023-03-01T07:42:00;8.27;;;6.50;;
17345;SDS011;8790;53.590;10.002;2023-03-01T07:44:32;8.53;;;6.20;;
17345;SDS011;8790;53.590;10.002;2023-03-01T07:47:04;10.57;;;7.10;;
17345;SDS011;8790;53.590;10.002;2023-03-01T07:49:36;14.40;;;7.30;;
17345;SDS011;8790;53.590;10.002;2023-03-01T07:52:10;10.67;;;7.93;;
17345;SDS011;8790;53.590;10.002;2023-03-01T07:54:42;15.43;;;8.53;;
17345;SDS011;8790;53.590;10.002;2023-03-01T07:57:15;13.40;;;8.77;;
17345;SDS011;8790;53.590;10.002;2023-03-01T07:59:46;11.37;;;9.00;;
17345;SDS011;8790;53.590;10.002;2023-03-01T08:02:18;17.83;;;13.43;;
17345;SDS011;8790;53.590;10.002;2023-03-01T08:04:50;14.13;;;9.13;;
17345;SDS011;8790;53.590;10.002;2023-03-01T08:07:23;34.03;;;21.77;;
17345;SDS011;8790;53.590;10.002;2023-03-01T08:09:54;14.20;;;10.33;;
17345;SDS011;8790;53.590;10.002;2023-03-01T08:12:26;15.07;;;9.87;;
17345;SDS011;8790;53.590;10.002;2023-03-01T08:14:58;18.17;;;11.87;;
17345;SDS011;8790;53.590;10.002;2023-03-01T08:17:30;14.20;;;10.20;;
17345;SDS011;8790;53.590;10.002;2023-03-01T08:20:02;13.23;;;10.37;;
17345;SDS011;8790;53.590;10.002;2023-03-01T08:22:37;15.00;;;10.10;;
17345;SDS011;8790;53.590;10.002;2023-03-01T08:25:09;15.80;;;10.23;;
17345;SDS011;8790;53.590;10.002;2023-03-01T08:27:41;12.60;;;9.40;;
17345;SDS011;8790;53.590;10.002;2023-03-01T08:30:13;13.83;;;9.73;;
17345;SDS011;8790;53.590;10.002;2023-03-01T08:32:45;13.03;;;9.90;;
17345;SDS011;8790;53.590;10.002;2023-03-01T08:35:17;14.00;;;10.03;;
17345;SDS011;8790;53.590;10.002;2023-03-01T08:37:51;15.20;;;10.33;;
17345;SDS011;8790;53.590;10.002;2023-03-01T08:40:23;13.83;;;10.93;;
17345;SDS011;8790;53.590;10.002;2023-03-01T08:42:54;12.80;;;10.07;;
17345;SDS011;8790;53.590;10.002;2023-03-01T08:45:26;15.33;;;10.63;;
17345;SDS011;8790;53.590;10.002;2023-03-01T08:47:58;17.33;;;10.77;;
17345;SDS011;8790;53.590;10.002;2023-03-01T08:50:29;16.80;;;10.90;;
17345;SDS011;8790;53.590;10.002;2023-03-01T08:53:02;16.57;;;10.87;;
17345;SDS011;8790;53.590;10.002;2023-03-01T08:55:34;16.17;;;10.83;;
17345;SDS011;8790;53.590;10.002;2023-03-01T08:58:06;13.93;;;10.77;;
17345;SDS011;8790;53.590;10.002;2023-03-01T09:00:38;15.97;;;10.60;;
17345;SDS011;8790;53.590;10.002;2023-03-01T09:03:10;16.10;;;11.60;;
17345;SDS011;8790;53.590;10.002;2023-03-01T09:05:41;13.57;;;10.60;;
17345;SDS011;8790;53.590;10.002;2023-03-01T09:08:17;16.07;;;11.60;;
17345;SDS011;8790;53.590;10.002;2023-03-01T09:10:49;16.00;;;11.37;;
17345;SDS011;8790;53.590;10.002;2023-03-01T09:13:20;16.87;;;12.27;;
17345;SDS011;8790;53.590;10.002;2023-03-01T09:15:54;17.43;;;12.77;;
17345;SDS011;8790;53.590;10.002;2023-03-01T09:18:26;15.23;;;11.63;;
17345;SDS011;8790;53.590;10.002;2023-03-01T09:21:01;16.20;;;11.97;;
17345;SDS011;8790;53.590;10.002;2023-03-01T09:23:39;16.27;;;12.13;;
17345;SDS011;8790;53.590;10.002;2023-03-01T09:26:13;15.63;;;11.60;;
17345;SDS011;8790;53.590;10.002;2023-03-01T09:28:50;18.20;;;13.60;;
17345;SDS011;8790;53.590;10.002;2023-03-01T09:31:23;16.00;;;12.40;;
17345;SDS011;8790;53.590;10.002;2023-03-01T09:33:55;16.93;;;11.93;;
17345;SDS011;8790;53.590;10.002;2023-03-01T09:36:27;14.17;;;12.20;;
17345;SDS011;8790;53.590;10.002;2023-03-01T09:39:01;15.17;;;12.30;;
17345;SDS011;8790;53.590;10.002;2023-03-01T09:41:46;21.17;;;12.33;;
17345;SDS011;8790;53.590;10.002;2023-03-01T09:44:23;17.27;;;11.83;;
17345;SDS011;8790;53.590;10.002;2023-03-01T09:47:01;17.23;;;12.97;;
17345;SDS011;8790;53.590;10.002;2023-03-01T09:49:34;17.33;;;12.73;;
17345;SDS011;8790;53.590;10.002;2023-03-01T09:52:11;16.43;;;12.10;;
17345;SDS011;8790;53.590;10.002;2023-03-01T09:54:53;15.63;;;11.70;;
17345;SDS011;8790;53.590;10.002;2023-03-01T09:57:28;15.37;;;10.83;;
17345;SDS011;8790;53.590;10.002;2023-03-01T10:00:17;16.50;;;11.63;;
17345;SDS011;8790;53.590;10.002;2023-03-01T10:02:57;13.97;;;11.50;;
17345;SDS011;8790;53.590;10.002;2023-03-01T10:05:36;14.87;;;10.90;;
17345;SDS011;8790;53.590;10.002;2023-03-01T10:08:19;15.87;;;10.77;;
17345;SDS011;8790;53.590;10.002;2023-03-01T10:11:00;15.23;;;9.93;;
17345;SDS011;8790;53.590;10.002;2023-03-01T10:13:37;16.77;;;12.03;;
17345;SDS011;8790;53.590;10.002;2023-03-01T10:16:20;14.50;;;11.23;;
17345;SDS011;8790;53.590;10.002;2023-03-01T10:18:58;16.57;;;11.40;;
17345;SDS011;8790;53.590;10.002;2023-03-01T10:21:33;16.50;;;11.67;;
17345;SDS011;8790;53.590;10.002;2023-03-01T10:24:10;15.87;;;11.00;;
17345;SDS011;8790;53.590;10.002;2023-03-01T10:26:48;17.33;;;11.07;;
17345;SDS011;8790;53.590;10.002;2023-03-01T10:29:26;16.23;;;11.77;;
17345;SDS011;8790;53.590;10.002;2023-03-01T10:32:02;14.77;;;10.40;;
17345;SDS011;8790;53.590;10.002;2023-03-01T10:34:36;14.30;;;9.97;;
17345;SDS011;8790;53.590;10.002;2023-03-01T10:37:09;14.63;;;10.10;;
17345;SDS011;8790;53.590;10.002;2023-03-01T10:40:00;14.50;;;9.30;;
17345;SDS011;8790;53.590;10.002;2023-03-01T10:42:40;13.23;;;9.37;;
17345;SDS011;8790;53.590;10.002;2023-03-01T10:45:26;11.33;;;8.43;;
17345;SDS011;8790;53.590;10.002;2023-03-01T10:48:03;12.00;;;8.83;;
17345;SDS011;8790;53.590;10.002;2023-03-01T10:50:36;13.47;;;9.53;;
17345;SDS011;8790;53.590;10.002;2023-03-01T10:53:21;13.50;;;10.00;;
17345;SDS011;8790;53.590;10.002;2023-03-01T10:55:57;14.50;;;9.33;;
17345;SDS011;8790;53.590;10.002;2023-03-01T10:58:33;12.90;;;8.93;;
17345;SDS011;8790;53.590;10.002;2023-03-01T11:01:06;12.73;;;9.03;;
17345;SDS011;8790;53.590;10.002;2023-03-01T11:04:07;13.67;;;9.53;;
17345;SDS011;8790;53.590;10.002;2023-03-01T11:06:42;15.33;;;9.90;;
17345;SDS011;8790;53.590;10.002;2023-03-01T11:09:15;17.60;;;10.97;;
17345;SDS011;8790;53.590;10.002;2023-03-01T11:11:51;13.53;;;9.53;;
17345;SDS011;8790;53.590;10.002;2023-03-01T11:14:25;13.40;;;9.67;;
17345;SDS011;8790;53.590;10.002;2023-03-01T11:16:58;13.17;;;9.43;;
17345;SDS011;8790;53.590;10.002;2023-03-01T11:19:32;11.17;;;9.17;;
17345;SDS011;8790;53.590;10.002;2023-03-01T11:22:05;14.50;;;9.30;;
17345;SDS011;8790;53.590;10.002;2023-03-01T11:24:43;15.17;;;9.53;;
17345;SDS011;8790;53.590;10.002;2023-03-01T11:27:18;12.30;;;8.47;;
17345;SDS011;8790;53.590;10.002;2023-03-01T11:29:55;12.30;;;7.93;;
17345;SDS011;8790;53.590;10.002;2023-03-01T11:32:33;11.77;;;8.57;;
17345;SDS011;8790;53.590;10.002;2023-03-01T11:35:14;11.47;;;8.07;;
17345;SDS011;8790;53.590;10.002;2023-03-01T11:37:53;10.53;;;7.33;;
17345;SDS011;8790;53.590;10.002;2023-03-01T11:40:32;10.83;;;7.63;;
17345;SDS011;8790;53.590;10.002;2023-03-01T11:43:09;8.90;;;6.30;;
17345;SDS011;8790;53.590;10.002;2023-03-01T11:45:51;8.13;;;6.10;;
17345;SDS011;8790;53.590;10.002;2023-03-01T11:48:40;8.40;;;6.10;;
17345;SDS011;8790;53.590;10.002;2023-03-01T11:51:25;7.37;;;5.70;;
17345;SDS011;8790;53.590;10.002;2023-03-01T11:54:13;8.13;;;5.97;;
17345;SDS011;8790;53.590;10.002;2023-03-01T11:56:54;6.70;;;5.40;;
17345;SDS011;8790;53.590;10.002;2023-03-01T11:59:32;8.27;;;5.67;;
17345;SDS011;8790;53.590;10.002;2023-03-01T12:02:21;11.07;;;7.23;;
17345;SDS011;8790;53.590;10.002;2023-03-01T12:05:20;9.77;;;5.73;;
17345;SDS011;8790;53.590;10.002;2023-03-01T12:08:01;6.50;;;4.63;;
17345;SDS011;8790;53.590;10.002;2023-03-01T12:10:43;6.77;;;5.27;;
17345;SDS011;8790;53.590;10.002;2023-03-01T12:13:25;6.03;;;4.40;;
17345;SDS011;8790;53.590;10.002;2023-03-01T12:16:20;7.10;;;5.33;;
17345;SDS011;8790;53.590;10.002;2023-03-01T12:22:13;8.00;;;5.40;;
17345;SDS011;8790;53.590;10.002;2023-03-01T12:25:06;7.50;;;5.73;;
17345;SDS011;8790;53.590;10.002;2023-03-01T12:28:02;5.43;;;4.90;;
17345;SDS011;8790;53.590;10.002;2023-03-01T12:30:53;7.63;;;4.27;;
17345;SDS011;8790;53.590;10.002;2023-03-01T12:33:39;6.57;;;4.33;;
17345;SDS011;8790;53.590;10.002;2023-03-01T12:39:28;7.40;;;4.70;;
17345;SDS011;8790;53.590;10.002;2023-03-01T12:42:12;5.83;;;4.90;;
17345;SDS011;8790;53.590;10.002;2023-03-01T12:45:06;6.17;;;4.63;;
17345;SDS011;8790;53.590;10.002;2023-03-01T12:47:58;7.37;;;5.23;;
17345;SDS011;8790;53.590;10.002;2023-03-01T12:50:50;5.60;;;4.90;;
17345;SDS011;8790;53.590;10.002;2023-03-01T12:53:24;7.43;;;6.00;;
17345;SDS011;8790;53.590;10.002;2023-03-01T12:56:01;6.67;;;5.27;;
17345;SDS011;8790;53.590;10.002;2023-03-01T12:58:38;7.27;;;6.20;;
17345;SDS011;8790;53.590;10.002;2023-03-01T13:01:15;7.53;;;6.33;;
17345;SDS011;8790;53.590;10.002;2023-03-01T13:03:56;7.60;;;6.07;;
17345;SDS011;8790;53.590;10.002;2023-03-01T13:06:39;6.93;;;5.80;;
17345;SDS011;8790;53.590;10.002;2023-03-01T13:09:18;7.57;;;5.90;;
17345;SDS011;8790;53.590;10.002;2023-03-01T13:11:56;8.07;;;6.23;;
17345;SDS011;8790;53.590;10.002;2023-03-01T13:14:43;8.43;;;6.03;;
17345;SDS011;8790;53.590;10.002;2023-03-01T13:17:29;8.60;;;6.30;;
17345;SDS011;8790;53.590;10.002;2023-03-01T13:20:11;7.80;;;5.90;;
17345;SDS011;8790;53.590;10.002;2023-03-01T13:22:44;7.83;;;6.20;;
17345;SDS011;8790;53.590;10.002;2023-03-01T13:25:18;7.33;;;6.17;;
17345;SDS011;8790;53.590;10.002;2023-03-01T13:27:52;7.87;;;6.33;;
17345;SDS011;8790;53.590;10.002;2023-03-01T13:31:03;7.20;;;6.00;;
17345;SDS011;8790;53.590;10.002;2023-03-01T13:33:41;8.17;;;6.67;;
17345;SDS011;8790;53.590;10.002;2023-03-01T13:39:28;8.33;;;6.10;;
17345;SDS011;8790;53.590;10.002;2023-03-01T13:42:25;8.57;;;5.83;;
17345;SDS011;8790;53.590;10.002;2023-03-01T13:45:12;6.73;;;4.80;;
17345;SDS011;8790;53.590;10.002;2023-03-01T13:47:49;8.10;;;5.23;;
17345;SDS011;8790;53.590;10.002;2023-03-01T13:50:25;8.70;;;6.00;;
17345;SDS011;8790;53.590;10.002;2023-03-01T13:53:00;6.43;;;5.00;;
17345;SDS011;8790;53.590;10.002;2023-03-01T13:55:36;7.03;;;5.67;;
17345;SDS011;8790;53.590;10.002;2023-03-01T13:58:15;7.97;;;6.10;;
17345;SDS011;8790;53.590;10.002;2023-03-01T14:00:59;5.73;;;4.80;;
17345;SDS011;8790;53.590;10.002;2023-03-01T14:03:32;5.97;;;4.83;;
17345;SDS011;8790;53.590;10.002;2023-03-01T14:06:06;6.70;;;5.07;;
17345;SDS011;8790;53.590;10.002;2023-03-01T14:08:39;6.57;;;4.90;;
17345;SDS011;8790;53.590;10.002;2023-03-01T14:14:37;6.10;;;4.83;;
17345;SDS011;8790;53.590;10.002;2023-03-01T14:17:43;5.83;;;5.07;;
17345;SDS011;8790;53.590;10.002;2023-03-01T14:20:23;6.77;;;4.87;;
17345;SDS011;8790;53.590;10.002;2023-03-01T14:22:58;6.13;;;4.83;;
17345;SDS011;8790;53.590;10.002;2023-03-01T14:25:33;7.50;;;4.80;;
17345;SDS011;8790;53.590;10.002;2023-03-01T14:28:13;6.93;;;5.13;;
17345;SDS011;8790;53.590;10.002;2023-03-01T14:30:47;7.37;;;5.57;;
17345;SDS011;8790;53.590;10.002;2023-03-01T14:33:24;5.73;;;4.87;;
17345;SDS011;8790;53.590;10.002;2023-03-01T14:35:58;5.50;;;4.90;;
17345;SDS011;8790;53.590;10.002;2023-03-01T14:38:32;6.73;;;4.90;;
17345;SDS011;8790;53.590;10.002;2023-03-01T14:41:06;7.17;;;5.07;;
17345;SDS011;8790;53.590;10.002;2023-03-01T14:43:40;6.80;;;4.93;;
17345;SDS011;8790;53.590;10.002;2023-03-01T14:46:19;7.07;;;5.87;;
17345;SDS011;8790;53.590;10.002;2023-03-01T14:48:54;7.80;;;6.03;;
17345;SDS011;8790;53.590;10.002;2023-03-01T14:51:29;7.90;;;6.37;;
17345;SDS011;8790;53.590;10.002;2023-03-01T14:54:01;6.47;;;5.47;;
17345;SDS011;8790;53.590;10.002;2023-03-01T14:56:42;6.37;;;5.63;;
17345;SDS011;8790;53.590;10.002;2023-03-01T14:59:15;5.83;;;4.77;;
17345;SDS011;8790;53.590;10.002;2023-03-01T15:01:53;7.93;;;5.37;;
17345;SDS011;8790;53.590;10.002;2023-03-01T15:04:28;7.70;;;5.87;;
17345;SDS011;8790;53.590;10.002;2023-03-01T15:07:02;8.03;;;5.70;;
17345;SDS011;8790;53.590;10.002;2023-03-01T15:09:36;6.60;;;5.37;;
17345;SDS011;8790;53.590;10.002;2023-03-01T15:12:24;5.87;;;5.20;;
17345;SDS011;8790;53.590;10.002;2023-03-01T15:18:17;8.00;;;6.07;;
17345;SDS011;8790;53.590;10.002;2023-03-01T15:20:51;8.27;;;5.67;;
17345;SDS011;8790;53.590;10.002;2023-03-01T15:23:24;8.23;;;5.67;;
17345;SDS011;8790;53.590;10.002;2023-03-01T15:25:57;6.80;;;5.70;;
17345;SDS011;8790;53.590;10.002;2023-03-01T15:28:31;7.83;;;6.20;;
17345;SDS011;8790;53.590;10.002;2023-03-01T15:31:07;7.40;;;5.93;;
17345;SDS011;8790;53.590;10.002;2023-03-01T15:33:49;8.47;;;6.23;;
17345;SDS011;8790;53.590;10.002;2023-03-01T15:36:35;8.30;;;6.13;;
17345;SDS011;8790;53.590;10.002;2023-03-01T15:39:31;9.33;;;6.90;;
17345;SDS011;8790;53.590;10.002;2023-03-01T15:42:07;9.63;;;6.83;;
17345;SDS011;8790;53.590;10.002;2023-03-01T15:44:41;9.20;;;7.00;;